createdAt,value
2019-05-05T00:00:41.667Z,88.21
2019-05-05T00:03:08.953Z,88.16
2019-05-05T00:05:36.295Z,88.21
2019-05-05T00:08:04.903Z,88.15
2019-05-05T00:10:34.651Z,88.13
2019-05-05T00:13:01.435Z,87.98
2019-05-05T00:15:28.761Z,88.20
2019-05-05T00:17:56.159Z,88.22
2019-05-05T00:20:25.026Z,88.17
2019-05-05T00:22:52.126Z,88.17
2019-05-05T00:25:19.435Z,88.18
2019-05-05T00:27:46.741Z,88.25
2019-05-05T00:30:14.452Z,88.30
2019-05-05T00:32:41.459Z,88.32
2019-05-05T00:35:08.853Z,88.27
2019-05-05T00:37:37.109Z,88.10
2019-05-05T00:40:05.018Z,88.12
2019-05-05T00:42:32.116Z,88.06
2019-05-05T00:44:59.172Z,88.06
2019-05-05T00:47:26.450Z,87.99
2019-05-05T00:49:53.500Z,87.94
2019-05-05T00:52:20.551Z,87.92
2019-05-05T00:54:47.838Z,87.85
2019-05-05T00:57:15.117Z,87.77
2019-05-05T00:59:42.428Z,87.85
2019-05-05T01:02:09.464Z,87.83
2019-05-05T01:04:36.759Z,87.89
2019-05-05T01:07:05.080Z,87.95
2019-05-05T01:09:34.305Z,88.08
2019-05-05T01:12:01.560Z,88.18
2019-05-05T01:14:28.904Z,88.14
2019-05-05T01:16:55.945Z,88.20
2019-05-05T01:19:24.326Z,88.29
2019-05-05T01:21:51.520Z,88.40
2019-05-05T01:24:18.563Z,88.56
2019-05-05T01:26:45.615Z,88.58
2019-05-05T01:29:14.571Z,88.67
2019-05-05T01:31:41.406Z,88.65
2019-05-05T01:34:08.450Z,88.63
2019-05-05T01:36:35.813Z,88.72
2019-05-05T01:39:04.226Z,88.74
2019-05-05T01:41:34.767Z,88.72
2019-05-05T01:44:01.913Z,88.80
2019-05-05T01:46:29.218Z,88.77
2019-05-05T01:48:56.506Z,88.73
2019-05-05T01:51:24.771Z,88.56
2019-05-05T01:53:52.119Z,88.45
2019-05-05T01:56:19.436Z,88.55
2019-05-05T01:58:46.472Z,88.62
2019-05-05T02:01:15.265Z,88.67
2019-05-05T02:03:44.285Z,88.80
2019-05-05T02:06:11.337Z,88.89
2019-05-05T02:08:38.370Z,88.92
2019-05-05T02:11:05.427Z,89.02
2019-05-05T02:13:34.612Z,88.97
2019-05-05T02:16:01.478Z,88.95
2019-05-05T02:18:29.485Z,88.89
2019-05-05T02:20:56.808Z,88.89
2019-05-05T02:23:24.597Z,88.86
2019-05-05T02:25:55.189Z,88.93
2019-05-05T02:28:24.064Z,88.99
2019-05-05T02:30:50.729Z,88.89
2019-05-05T02:33:18.021Z,89.02
2019-05-05T02:35:46.086Z,89.09
2019-05-05T02:38:15.724Z,89.05
2019-05-05T02:40:45.053Z,89.08
2019-05-05T02:43:11.158Z,89.12
2019-05-05T02:45:38.193Z,89.13
2019-05-05T02:48:06.120Z,89.11
2019-05-05T02:50:48.228Z,89.07
2019-05-05T02:53:04.060Z,88.97
2019-05-05T02:55:32.787Z,88.64
2019-05-05T02:58:00.398Z,88.72
2019-05-05T03:00:27.702Z,88.65
2019-05-05T03:02:54.755Z,88.60
2019-05-05T03:05:23.561Z,88.32
2019-05-05T03:07:50.927Z,88.13
2019-05-05T03:10:18.227Z,87.96
2019-05-05T03:12:45.273Z,88.01
2019-05-05T03:15:14.297Z,87.54
2019-05-05T03:17:41.651Z,87.85
2019-05-05T03:20:08.693Z,87.86
2019-05-05T03:22:35.983Z,87.33
2019-05-05T03:25:04.663Z,87.07
2019-05-05T03:27:34.007Z,87.10
2019-05-05T03:30:00.524Z,87.15
2019-05-05T03:32:27.821Z,86.79
2019-05-05T03:34:55.124Z,86.90
2019-05-05T03:37:22.508Z,86.93
2019-05-05T03:39:49.806Z,86.89
2019-05-05T03:42:17.113Z,86.87
2019-05-05T03:44:44.387Z,87.13
2019-05-05T03:47:13.482Z,86.82
2019-05-05T03:49:40.738Z,87.02
2019-05-05T03:52:08.087Z,87.09
2019-05-05T03:54:35.122Z,87.10
2019-05-05T03:57:03.548Z,86.91
2019-05-05T03:59:30.989Z,87.03
2019-05-05T04:01:58.352Z,87.29
2019-05-05T04:04:25.396Z,87.36
2019-05-05T04:06:54.039Z,87.49
2019-05-05T04:09:21.169Z,87.70
2019-05-05T04:11:48.206Z,87.70
2019-05-05T04:14:18.266Z,87.88
2019-05-05T04:16:44.714Z,87.84
2019-05-05T04:19:13.859Z,87.86
2019-05-05T04:21:40.960Z,87.79
2019-05-05T04:24:08.023Z,87.77
2019-05-05T04:26:35.310Z,87.54
2019-05-05T04:29:05.300Z,87.35
2019-05-05T04:31:31.401Z,87.41
2019-05-05T04:33:58.759Z,87.14
2019-05-05T04:36:25.800Z,87.13
2019-05-05T04:38:54.545Z,87.18
2019-05-05T04:41:24.566Z,86.92
2019-05-05T04:43:54.758Z,86.73
2019-05-05T04:46:24.412Z,86.67
2019-05-05T04:48:51.288Z,86.62
2019-05-05T04:51:18.321Z,86.43
2019-05-05T04:53:45.370Z,86.13
2019-05-05T04:56:14.126Z,86.55
2019-05-05T04:58:41.549Z,85.80
2019-05-05T05:01:08.582Z,85.55
2019-05-05T05:03:35.635Z,85.40
2019-05-05T05:06:04.147Z,85.19
2019-05-05T05:08:33.681Z,84.48
2019-05-05T05:11:00.657Z,83.87
2019-05-05T05:13:27.709Z,83.16
2019-05-05T05:15:55.059Z,82.67
2019-05-05T05:18:24.031Z,82.27
2019-05-05T05:20:51.371Z,81.39
2019-05-05T05:23:18.397Z,80.18
2019-05-05T05:25:45.437Z,81.17
2019-05-05T05:28:14.405Z,81.68
2019-05-05T05:30:43.787Z,81.52
2019-05-05T05:33:10.639Z,80.92
2019-05-05T05:35:38.014Z,81.33
2019-05-05T05:38:05.361Z,80.86
2019-05-05T05:40:34.203Z,80.15
2019-05-05T05:43:01.495Z,81.06
2019-05-05T05:45:28.573Z,80.61
2019-05-05T05:47:55.898Z,80.61
2019-05-05T05:50:24.527Z,81.37
2019-05-05T05:52:53.957Z,80.61
2019-05-05T05:55:21.135Z,80.20
2019-05-05T05:57:48.491Z,78.90
2019-05-05T06:00:15.848Z,78.11
2019-05-05T06:02:43.950Z,77.92
2019-05-05T06:05:11.499Z,78.47
2019-05-05T06:07:38.535Z,79.26
2019-05-05T06:10:05.582Z,78.16
2019-05-05T06:12:33.700Z,78.33
2019-05-05T06:15:01.101Z,76.59
2019-05-05T06:17:28.137Z,78.30
2019-05-05T06:19:55.185Z,77.48
2019-05-05T06:22:29.424Z,78.84
2019-05-05T06:24:50.959Z,78.32
2019-05-05T06:27:18.296Z,78.15
2019-05-05T06:29:45.341Z,78.30
2019-05-05T06:32:14.632Z,78.86
2019-05-05T06:34:41.789Z,78.88
2019-05-05T06:37:09.064Z,79.32
2019-05-05T06:39:36.412Z,77.68
2019-05-05T06:42:04.520Z,77.07
2019-05-05T06:44:33.825Z,78.37
2019-05-05T06:47:01.022Z,77.80
2019-05-05T06:49:31.121Z,79.29
2019-05-05T06:51:57.388Z,78.61
2019-05-05T06:54:24.947Z,79.31
2019-05-05T06:56:53.883Z,79.84
2019-05-05T06:59:21.406Z,80.27
2019-05-05T07:01:48.735Z,80.12
2019-05-05T07:04:16.087Z,78.77
2019-05-05T07:06:53.601Z,79.62
2019-05-05T07:09:13.903Z,79.54
2019-05-05T07:11:40.985Z,80.35
2019-05-05T07:14:08.012Z,80.58
2019-05-05T07:16:35.269Z,80.11
2019-05-05T07:19:04.384Z,80.84
2019-05-05T07:21:31.299Z,79.75
2019-05-05T07:23:58.336Z,81.29
2019-05-05T07:26:25.630Z,80.34
2019-05-05T07:28:54.095Z,79.54
2019-05-05T07:31:21.311Z,79.46
2019-05-05T07:33:48.349Z,78.96
2019-05-05T07:36:15.413Z,80.07
2019-05-05T07:38:44.191Z,79.23
2019-05-05T07:41:11.399Z,77.19
2019-05-05T07:43:38.429Z,77.13
2019-05-05T07:46:05.856Z,77.65
2019-05-05T07:48:33.581Z,77.47
2019-05-05T07:51:04.453Z,76.01
2019-05-05T07:53:30.599Z,76.42
2019-05-05T07:55:57.654Z,76.58
2019-05-05T07:58:24.690Z,76.62
2019-05-05T08:00:53.991Z,76.53
2019-05-05T08:03:20.500Z,76.30
2019-05-05T08:05:47.546Z,74.85
2019-05-05T08:08:14.829Z,74.06
2019-05-05T08:10:43.772Z,74.31
2019-05-05T08:13:10.885Z,73.02
2019-05-05T08:15:38.194Z,74.02
2019-05-05T08:18:05.550Z,72.92
2019-05-05T08:20:33.877Z,72.98
2019-05-05T08:23:01.311Z,71.67
2019-05-05T08:25:39.364Z,70.86
2019-05-05T08:27:57.632Z,70.79
2019-05-05T08:30:24.668Z,71.00
2019-05-05T08:32:53.909Z,70.40
2019-05-05T08:35:20.870Z,69.61
2019-05-05T08:37:48.200Z,71.88
2019-05-05T08:40:15.237Z,71.19
2019-05-05T08:42:44.527Z,71.90
2019-05-05T08:45:13.827Z,72.56
2019-05-05T08:47:40.731Z,72.73
2019-05-05T08:50:08.034Z,71.38
2019-05-05T08:52:35.406Z,70.73
2019-05-05T08:55:04.538Z,71.23
2019-05-05T08:57:31.533Z,71.74
2019-05-05T08:59:58.574Z,71.53
2019-05-05T09:02:25.929Z,67.92
2019-05-05T09:04:53.890Z,68.61
2019-05-05T09:07:21.253Z,68.79
2019-05-05T09:09:48.713Z,66.20
2019-05-05T09:12:16.066Z,64.38
2019-05-05T09:14:44.881Z,64.14
2019-05-05T09:17:13.655Z,64.12
2019-05-05T09:19:42.266Z,61.62
2019-05-05T09:22:09.585Z,60.21
2019-05-05T09:24:36.937Z,57.74
2019-05-05T09:27:03.994Z,57.61
2019-05-05T09:29:31.039Z,59.34
2019-05-05T09:31:58.393Z,60.22
2019-05-05T09:34:25.441Z,60.37
2019-05-05T09:36:54.413Z,60.88
2019-05-05T09:39:23.979Z,60.18
2019-05-05T09:41:53.475Z,60.06
2019-05-05T09:44:20.395Z,56.97
2019-05-05T09:46:47.765Z,55.57
2019-05-05T09:49:14.818Z,52.13
2019-05-05T09:51:44.001Z,49.54
2019-05-05T09:54:14.265Z,48.44
2019-05-05T09:56:39.944Z,48.53
2019-05-05T09:59:06.994Z,48.88
2019-05-05T10:01:34.039Z,48.03
2019-05-05T10:04:01.090Z,50.90
2019-05-05T10:06:28.634Z,52.43
2019-05-05T10:08:56.013Z,51.43
2019-05-05T10:11:23.880Z,49.82
2019-05-05T10:13:51.328Z,49.22
2019-05-05T10:16:18.598Z,50.31
2019-05-05T10:18:45.917Z,50.17
2019-05-05T10:21:25.621Z,50.78
2019-05-05T10:23:54.045Z,51.81
2019-05-05T10:26:21.546Z,47.86
2019-05-05T10:28:48.961Z,49.97
2019-05-05T10:31:17.216Z,51.31
2019-05-05T10:33:44.592Z,50.65
2019-05-05T10:36:13.848Z,51.87
2019-05-05T10:38:41.043Z,50.04
2019-05-05T10:41:08.403Z,53.92
2019-05-05T10:43:35.451Z,51.05
2019-05-05T10:46:03.834Z,51.36
2019-05-05T10:51:12.771Z,52.03
2019-05-05T10:53:40.073Z,51.41
2019-05-05T10:56:07.107Z,51.15
2019-05-05T10:58:34.158Z,50.64
2019-05-05T11:01:01.498Z,51.14
2019-05-05T11:03:28.834Z,49.30
2019-05-05T11:05:57.221Z,46.16
2019-05-05T11:08:24.565Z,39.80
2019-05-05T11:10:55.218Z,38.85
2019-05-05T11:15:48.696Z,43.53
2019-05-05T11:18:15.724Z,45.18
2019-05-05T11:20:44.699Z,46.36
2019-05-05T11:23:14.560Z,47.48
2019-05-05T11:25:41.373Z,45.64
2019-05-05T11:28:08.725Z,44.37
2019-05-05T11:30:36.099Z,39.94
2019-05-05T11:33:04.044Z,41.08
2019-05-05T11:35:31.196Z,40.71
2019-05-05T11:38:10.774Z,44.48
2019-05-05T11:40:39.251Z,44.29
2019-05-05T11:43:14.207Z,43.27
2019-05-05T11:45:41.170Z,42.49
2019-05-05T11:48:20.575Z,44.03
2019-05-05T11:50:48.762Z,44.98
2019-05-05T11:53:20.098Z,43.48
2019-05-05T11:55:47.623Z,44.09
2019-05-05T11:58:14.981Z,43.67
2019-05-05T12:03:23.456Z,46.42
2019-05-05T12:05:51.635Z,47.06
2019-05-05T12:08:20.815Z,46.42
2019-05-05T12:10:48.349Z,44.68
2019-05-05T12:13:26.146Z,45.21
2019-05-05T12:18:44.993Z,44.90
2019-05-05T12:21:14.112Z,45.68
2019-05-05T12:23:44.369Z,48.03
2019-05-05T12:28:48.262Z,49.04
2019-05-05T12:31:16.488Z,49.01
2019-05-05T12:33:47.589Z,49.41
2019-05-05T12:39:07.900Z,48.95
2019-05-05T12:44:14.617Z,49.88
2019-05-05T12:49:25.418Z,47.71
2019-05-05T12:54:36.772Z,44.45
2019-05-05T12:57:09.476Z,42.48
2019-05-05T12:59:36.637Z,40.95
2019-05-05T13:02:07.671Z,41.36
2019-05-05T13:07:27.447Z,38.10
2019-05-05T13:12:46.266Z,39.36
2019-05-05T13:15:14.355Z,38.12
2019-05-05T13:17:45.761Z,37.79
2019-05-05T13:22:47.970Z,37.53
2019-05-05T13:25:16.407Z,38.10
2019-05-05T13:27:50.555Z,38.45
2019-05-05T13:30:21.359Z,39.81
2019-05-05T13:32:49.576Z,41.72
2019-05-05T13:35:17.840Z,40.90
2019-05-05T13:37:49.416Z,41.47
2019-05-05T13:40:27.610Z,39.84
2019-05-05T13:45:29.497Z,39.77
2019-05-05T13:47:58.956Z,42.08
2019-05-05T13:50:34.129Z,39.92
2019-05-05T13:55:34.761Z,39.47
2019-05-05T13:58:08.804Z,40.69
2019-05-05T14:00:40.664Z,42.30
2019-05-05T14:03:10.327Z,45.70
2019-05-05T14:05:53.986Z,44.88
2019-05-05T14:08:23.733Z,45.00
2019-05-05T14:10:51.550Z,46.13
2019-05-05T14:13:27.840Z,46.75
2019-05-05T14:15:54.890Z,47.10
2019-05-05T14:18:23.544Z,46.60
2019-05-05T14:20:50.838Z,46.92
2019-05-05T14:23:18.681Z,46.30
2019-05-05T14:25:48.909Z,44.96
2019-05-05T14:28:18.420Z,44.18
2019-05-05T14:30:49.553Z,41.00
2019-05-05T14:35:58.107Z,40.74
2019-05-05T14:38:36.200Z,40.01
2019-05-05T14:46:17.080Z,43.88
2019-05-05T14:48:53.510Z,42.81
2019-05-05T14:51:21.128Z,44.26
2019-05-05T14:53:48.287Z,44.10
2019-05-05T14:56:16.743Z,41.82
2019-05-05T14:58:51.877Z,41.75
2019-05-05T15:01:19.079Z,41.76
2019-05-05T15:03:53.545Z,42.12
2019-05-05T15:06:20.567Z,40.21
2019-05-05T15:08:47.595Z,40.08
2019-05-05T15:11:14.903Z,42.13
2019-05-05T15:13:43.727Z,43.16
2019-05-05T15:16:13.919Z,44.30
2019-05-05T15:18:42.191Z,42.74
2019-05-05T15:21:09.222Z,43.76
2019-05-05T15:23:36.268Z,42.83
2019-05-05T15:26:04.485Z,42.97
2019-05-05T15:28:33.646Z,42.92
2019-05-05T15:31:01.078Z,41.88
2019-05-05T15:33:28.124Z,41.96
2019-05-05T15:35:55.156Z,41.95
2019-05-05T15:38:24.350Z,42.74
2019-05-05T15:40:51.300Z,43.37
2019-05-05T15:43:18.609Z,43.81
2019-05-05T15:45:45.874Z,42.95
2019-05-05T15:48:14.008Z,43.85
2019-05-05T15:50:41.495Z,44.10
2019-05-05T15:55:54.667Z,44.54
2019-05-05T15:58:23.628Z,43.79
2019-05-05T16:00:51.087Z,43.65
2019-05-05T16:03:18.441Z,44.29
2019-05-05T16:05:45.792Z,45.21
2019-05-05T16:08:14.126Z,45.69
2019-05-05T16:10:41.364Z,44.86
2019-05-05T16:13:08.406Z,44.84
2019-05-05T16:15:35.447Z,43.99
2019-05-05T16:18:04.086Z,43.82
2019-05-05T16:20:33.269Z,43.54
2019-05-05T16:23:00.561Z,43.00
2019-05-05T16:25:27.912Z,43.34
2019-05-05T16:27:55.370Z,42.29
2019-05-05T16:30:23.540Z,40.84
2019-05-05T16:32:50.740Z,42.31
2019-05-05T16:35:18.069Z,43.20
2019-05-05T16:37:45.111Z,44.79
2019-05-05T16:40:14.462Z,44.23
2019-05-05T16:42:43.621Z,44.69
2019-05-05T16:45:10.375Z,44.72
2019-05-05T16:47:38.839Z,44.36
2019-05-05T16:50:06.481Z,44.48
2019-05-05T16:52:33.534Z,43.96
2019-05-05T16:55:00.882Z,45.01
2019-05-05T16:57:33.978Z,45.61
2019-05-05T16:59:58.258Z,45.98
2019-05-05T17:02:25.612Z,44.22
2019-05-05T17:04:53.863Z,44.35
2019-05-05T17:07:21.354Z,44.78
2019-05-05T17:09:48.380Z,44.87
2019-05-05T17:12:18.167Z,44.33
2019-05-05T17:14:44.494Z,45.55
2019-05-05T17:17:11.751Z,45.35
2019-05-05T17:19:39.151Z,45.60
2019-05-05T17:22:06.501Z,45.54
2019-05-05T17:24:38.928Z,46.23
2019-05-05T17:27:06.156Z,46.57
2019-05-05T17:29:34.462Z,45.90
2019-05-05T17:32:01.963Z,45.15
2019-05-05T17:34:29.240Z,45.90
2019-05-05T17:36:56.274Z,46.22
2019-05-05T17:39:23.765Z,46.33
2019-05-05T17:41:51.278Z,46.71
2019-05-05T17:44:18.325Z,47.15
2019-05-05T17:46:45.686Z,48.13
2019-05-05T17:49:14.101Z,47.95
2019-05-05T17:51:43.541Z,49.33
2019-05-05T17:54:10.273Z,48.42
2019-05-05T17:56:37.299Z,48.53
2019-05-05T17:59:04.346Z,49.23
2019-05-05T18:01:33.550Z,48.40
2019-05-05T18:04:00.649Z,49.69
2019-05-05T18:06:30.276Z,50.09
2019-05-05T18:08:57.322Z,50.56
2019-05-05T18:11:25.374Z,50.53
2019-05-05T18:13:54.366Z,50.63
2019-05-05T18:16:24.440Z,51.18
2019-05-05T18:18:54.745Z,51.04
2019-05-05T18:21:23.793Z,51.20
2019-05-05T18:23:51.442Z,51.49
2019-05-05T18:26:18.658Z,51.77
2019-05-05T18:28:48.332Z,52.53
2019-05-05T18:31:17.531Z,52.84
2019-05-05T18:33:47.285Z,53.73
2019-05-05T18:36:14.627Z,54.04
2019-05-05T18:38:48.862Z,54.06
2019-05-05T18:43:56.904Z,54.00
2019-05-05T18:46:25.207Z,54.43
2019-05-05T18:48:58.392Z,55.31
2019-05-05T18:51:28.260Z,55.93
2019-05-05T18:53:57.621Z,56.86
2019-05-05T18:56:25.861Z,58.14
2019-05-05T18:58:54.242Z,57.02
2019-05-05T19:01:27.006Z,57.06
2019-05-05T19:03:55.166Z,57.45
2019-05-05T19:06:23.988Z,58.46
2019-05-05T19:08:57.028Z,58.93
2019-05-05T19:11:28.255Z,59.39
2019-05-05T19:14:11.824Z,59.65
2019-05-05T19:16:39.199Z,59.47
2019-05-05T19:19:06.237Z,59.45
2019-05-05T19:29:34.693Z,60.53
2019-05-05T19:32:10.447Z,62.18
2019-05-05T19:34:40.633Z,62.38
2019-05-05T19:37:10.061Z,61.82
2019-05-05T19:39:41.152Z,62.11
2019-05-05T19:44:45.228Z,62.10
2019-05-05T19:47:13.906Z,62.25
2019-05-05T19:49:53.536Z,62.11
2019-05-05T19:57:44.717Z,61.48
2019-05-05T20:00:12.010Z,60.46
2019-05-05T20:02:39.116Z,60.03
2019-05-05T20:05:06.182Z,60.97
2019-05-05T20:07:33.289Z,61.83
2019-05-05T20:10:00.565Z,62.20
2019-05-05T20:15:14.742Z,63.08
2019-05-05T20:17:44.357Z,63.20
2019-05-05T20:20:11.249Z,63.59
2019-05-05T20:22:38.290Z,64.01
2019-05-05T20:25:05.654Z,64.48
2019-05-05T20:27:34.344Z,64.87
2019-05-05T20:30:01.495Z,64.19
2019-05-05T20:32:30.305Z,64.11
2019-05-05T20:34:57.614Z,64.72
2019-05-05T20:37:24.967Z,64.69
2019-05-05T20:39:54.336Z,64.32
2019-05-05T20:42:21.062Z,64.85
2019-05-05T20:44:48.363Z,64.94
2019-05-05T20:47:15.722Z,65.66
2019-05-05T20:49:44.426Z,65.47
2019-05-05T20:52:11.538Z,65.81
2019-05-05T20:54:38.916Z,64.64
2019-05-05T20:57:06.283Z,64.87
2019-05-05T20:59:34.299Z,64.73
2019-05-05T21:02:04.242Z,64.54
2019-05-05T21:04:30.925Z,64.58
2019-05-05T21:06:58.251Z,64.52
2019-05-05T21:09:25.280Z,64.64
2019-05-05T21:11:54.795Z,65.03
2019-05-05T21:14:33.807Z,65.48
2019-05-05T21:16:50.455Z,66.26
2019-05-05T21:19:17.787Z,67.75
2019-05-05T21:21:44.841Z,68.41
2019-05-05T21:24:11.889Z,68.62
2019-05-05T21:26:39.250Z,68.27
2019-05-05T21:29:06.616Z,68.48
2019-05-05T21:31:34.622Z,68.22
2019-05-05T21:34:01.705Z,68.89
2019-05-05T21:36:28.712Z,68.34
2019-05-05T21:38:56.033Z,68.00
2019-05-05T21:41:24.418Z,67.60
2019-05-05T21:43:53.949Z,67.58
2019-05-05T21:46:20.745Z,66.79
2019-05-05T21:48:47.780Z,66.78
2019-05-05T21:51:14.816Z,66.63
2019-05-05T21:53:42.198Z,66.46
2019-05-05T21:56:09.556Z,66.20
2019-05-05T21:58:36.843Z,65.87
2019-05-05T22:01:04.556Z,65.67
2019-05-05T22:03:34.551Z,65.66
2019-05-05T22:06:03.675Z,65.57
2019-05-05T22:08:31.136Z,65.51
2019-05-05T22:10:58.170Z,65.60
2019-05-05T22:13:25.543Z,65.61
2019-05-05T22:15:54.598Z,65.29
2019-05-05T22:18:22.115Z,65.23
2019-05-05T22:20:49.403Z,65.02
2019-05-05T22:23:16.445Z,65.25
2019-05-05T22:25:43.855Z,65.45
2019-05-05T22:28:11.215Z,65.23
2019-05-05T22:30:38.493Z,65.10
2019-05-05T22:33:06.113Z,64.97
2019-05-05T22:35:34.950Z,65.25
2019-05-05T22:38:05.883Z,65.29
2019-05-05T22:40:31.325Z,65.35
2019-05-05T22:42:58.619Z,65.22
2019-05-05T22:45:25.902Z,65.46
2019-05-05T22:47:54.336Z,65.38
2019-05-05T22:50:21.704Z,65.44
2019-05-05T22:52:48.738Z,65.69
2019-05-05T22:55:16.020Z,65.71
2019-05-05T22:57:45.171Z,65.55
2019-05-05T23:00:23.819Z,65.81
2019-05-05T23:02:44.077Z,66.09
2019-05-05T23:05:11.044Z,66.52
2019-05-05T23:07:38.512Z,66.52
2019-05-05T23:10:05.545Z,66.24
2019-05-05T23:12:34.914Z,66.60
2019-05-05T23:15:03.915Z,66.74
2019-05-05T23:17:30.877Z,66.70
2019-05-05T23:19:58.342Z,66.49
2019-05-05T23:22:25.626Z,66.44
2019-05-05T23:24:54.216Z,66.56
2019-05-05T23:27:21.500Z,66.81
2019-05-05T23:29:48.805Z,66.75
2019-05-05T23:32:16.101Z,67.08
2019-05-05T23:34:44.537Z,67.29
2019-05-05T23:37:13.669Z,67.59
2019-05-05T23:39:40.980Z,67.79
2019-05-05T23:42:08.086Z,68.36
2019-05-05T23:44:35.118Z,69.46
2019-05-05T23:47:04.280Z,68.71
2019-05-05T23:49:30.894Z,69.04
2019-05-05T23:51:58.188Z,68.92
2019-05-05T23:54:25.494Z,68.58
2019-05-05T23:56:53.783Z,69.14
2019-05-05T23:59:20.884Z,69.05
